Mt. Baldy, CA (91759)

2:27 PM PDT on September 22, 2014 (GMT -0700)
849 North Dell Ave, Mt. Baldy | Change Station
CLOSE
Current Station
Personal Weather Station
Location: Mount Baldy, CA
Elevation: 4308 ft
Nearby Weather Stations

Elev 4308 ft 34.24 °N, 117.66 °W | Updated 57 seconds ago

Clear
Clear
82.4 °F
Feels Like 80 °F
N
0.0
Wind Variable Wind from West
Gusts 6.0 mph

Today
High -- | Low -- °F
--% Chance of Precip.
Yesterday
High -- | Low -- °F
Precip. -- in
6:38 AM 6:47 PM
Waning Crescent, 2% visible
Pressure 29.90 in
Visibility 10.0 miles
Clouds Clear
Heat Index 80 °F
Dew Point 43 °F
Humidity 25%
Rainfall 0.00 in
Snow Depth 3 in , 0 in , 0 in
UV 4.0 out of 12
Pollen 6.60 out of 12
Ozone Good
Flu Activity Not available.
METAR KGXA 222055Z AUTO 04004KT 10SM CLR 32/00 A3002 RMK AO2 SLP123 T03170003 58020

More Conditions Fewer Conditions

Pressure 29.90 in
Visibility 10.0 miles
Clouds Clear
Heat Index 80 °F
Dew Point 43 °F
Humidity 25%
Rainfall 0.00 in
Snow Depth 3 in , 0 in , 0 in
UV 4.0 out of 12
Pollen 6.60 out of 12
Ozone Good
Flu Activity Not available.
METAR KGXA 222055Z AUTO 04004KT 10SM CLR 32/00 A3002 RMK AO2 SLP123 T03170003 58020

More Conditions Fewer Conditions

10-Day Weather Forecast

Almanac

Astronomy

Sep. 22, 2014 Rise Set
Actual Time 6:38 AM PDT 6:47 PM PDT
Civil Twilight 6:13 AM PDT 7:12 PM PDT
Nautical Twilight 5:44 AM PDT 7:41 PM PDT
Astronomical Twilight 5:14 AM PDT 8:10 PM PDT
Moon 5:14 AM PDT 5:55 PM PDT
Length of Visible Light 12h 58m
Length of Day
12h 08m
Tomorrow will be 2m 7s shorter.
Waning Crescent, 2% of the Moon is Illuminated
Today
Waning Crescent
Sep 24
New
Oct 1
First Quarter
Oct 8
Full
Oct 15
Last Quarter

Today's Extremes

State Highs State Lows

Community

WunderPhotos

Upload Photos

1,755,536 photos uploaded!

Nearby

Air Quality

  Air Quality AQ Index Pollutant
Yesterday Good
OZONE
Yesterday Good
PM10
Current Good
OZONE
Tuesday Good
PM10
Tuesday Good
OZONE
Tuesday Good
CO
Tuesday Good
NO2

Snow Depth

Station Depth Elevation
CSS Lab 3 in 6900 ft
Summit Meadow 0 in 9122 ft
Leavitt Meadows 0 in 7200 ft
Rubicon #2 0 in 7500 ft
Adin Mountain 0 in 6200 ft

Earthquake Activity

City Distance Mag. Time & Date
Big Bear Lake, California 36 miles 2.5 7:26 AM PDT
2014-09-22
Borrego Springs, California 102 miles 2.6 7:34 AM PDT
2014-09-21
Inyokern, California 125 miles 3.1 5:33 PM PDT
2014-09-19
Aguanga, California 72 miles 2.5 1:38 AM PDT
2014-09-19
Minimum magnitude displayed is 2.5.

Coastal Water Temperatures

Place Temperature
No Stations Reporting

Nearby Weather Stations